sensor_id;sensor_type;location;lat;lon;timestamp;P1;durP1;ratioP1;P2;durP2;ratioP2
19869;SDS011;10097;50.862;4.696;2022-10-13T00:00:41;16.43;;;7.17;;
19869;SDS011;10097;50.862;4.696;2022-10-13T00:03:20;22.33;;;8.50;;
19869;SDS011;10097;50.862;4.696;2022-10-13T00:05:46;19.07;;;8.03;;
19869;SDS011;10097;50.862;4.696;2022-10-13T00:08:42;20.37;;;7.30;;
19869;SDS011;10097;50.862;4.696;2022-10-13T00:17:22;19.10;;;7.10;;
19869;SDS011;10097;50.862;4.696;2022-10-13T00:19:50;18.10;;;7.50;;
19869;SDS011;10097;50.862;4.696;2022-10-13T00:22:27;22.03;;;8.17;;
19869;SDS011;10097;50.862;4.696;2022-10-13T00:25:14;21.33;;;7.23;;
19869;SDS011;10097;50.862;4.696;2022-10-13T00:28:03;22.33;;;7.63;;
19869;SDS011;10097;50.862;4.696;2022-10-13T00:30:46;15.17;;;7.17;;
19869;SDS011;10097;50.862;4.696;2022-10-13T00:33:19;16.53;;;7.33;;
19869;SDS011;10097;50.862;4.696;2022-10-13T00:35:48;21.00;;;7.00;;
19869;SDS011;10097;50.862;4.696;2022-10-13T00:38:16;22.07;;;7.00;;
19869;SDS011;10097;50.862;4.696;2022-10-13T00:40:52;19.93;;;7.10;;
19869;SDS011;10097;50.862;4.696;2022-10-13T00:43:46;19.03;;;7.47;;
19869;SDS011;10097;50.862;4.696;2022-10-13T00:46:21;20.80;;;7.23;;
19869;SDS011;10097;50.862;4.696;2022-10-13T00:48:50;19.73;;;7.27;;
19869;SDS011;10097;50.862;4.696;2022-10-13T00:51:37;21.00;;;6.90;;
19869;SDS011;10097;50.862;4.696;2022-10-13T00:54:08;16.47;;;6.97;;
19869;SDS011;10097;50.862;4.696;2022-10-13T00:56:48;22.53;;;6.53;;
19869;SDS011;10097;50.862;4.696;2022-10-13T00:59:19;21.23;;;7.23;;
19869;SDS011;10097;50.862;4.696;2022-10-13T01:01:51;19.73;;;6.77;;
19869;SDS011;10097;50.862;4.696;2022-10-13T01:04:22;18.97;;;6.30;;
19869;SDS011;10097;50.862;4.696;2022-10-13T01:06:56;16.33;;;6.77;;
19869;SDS011;10097;50.862;4.696;2022-10-13T01:09:32;17.47;;;7.17;;
19869;SDS011;10097;50.862;4.696;2022-10-13T01:14:51;15.93;;;6.40;;
19869;SDS011;10097;50.862;4.696;2022-10-13T01:20:41;15.50;;;6.63;;
19869;SDS011;10097;50.862;4.696;2022-10-13T01:41:27;17.20;;;6.27;;
19869;SDS011;10097;50.862;4.696;2022-10-13T01:44:39;22.93;;;7.00;;
19869;SDS011;10097;50.862;4.696;2022-10-13T01:47:22;17.77;;;7.23;;
19869;SDS011;10097;50.862;4.696;2022-10-13T01:49:52;17.27;;;6.13;;
19869;SDS011;10097;50.862;4.696;2022-10-13T01:52:20;15.53;;;6.70;;
19869;SDS011;10097;50.862;4.696;2022-10-13T01:54:52;18.47;;;6.63;;
19869;SDS011;10097;50.862;4.696;2022-10-13T01:57:40;21.20;;;6.83;;
19869;SDS011;10097;50.862;4.696;2022-10-13T02:00:10;18.23;;;6.93;;
19869;SDS011;10097;50.862;4.696;2022-10-13T02:11:34;17.57;;;6.47;;
19869;SDS011;10097;50.862;4.696;2022-10-13T02:14:19;15.70;;;6.07;;
19869;SDS011;10097;50.862;4.696;2022-10-13T02:17:21;17.37;;;6.50;;
19869;SDS011;10097;50.862;4.696;2022-10-13T02:20:00;19.40;;;6.90;;
19869;SDS011;10097;50.862;4.696;2022-10-13T02:22:33;18.97;;;6.67;;
19869;SDS011;10097;50.862;4.696;2022-10-13T02:25:08;24.43;;;7.10;;
19869;SDS011;10097;50.862;4.696;2022-10-13T02:27:39;20.10;;;6.30;;
19869;SDS011;10097;50.862;4.696;2022-10-13T02:30:18;17.63;;;7.13;;
19869;SDS011;10097;50.862;4.696;2022-10-13T02:32:54;20.60;;;6.53;;
19869;SDS011;10097;50.862;4.696;2022-10-13T02:35:28;15.23;;;6.37;;
19869;SDS011;10097;50.862;4.696;2022-10-13T02:37:57;21.50;;;6.60;;
19869;SDS011;10097;50.862;4.696;2022-10-13T02:40:32;17.07;;;7.10;;
19869;SDS011;10097;50.862;4.696;2022-10-13T02:42:58;19.93;;;7.53;;
19869;SDS011;10097;50.862;4.696;2022-10-13T02:45:33;19.40;;;7.27;;
19869;SDS011;10097;50.862;4.696;2022-10-13T02:48:09;19.83;;;6.50;;
19869;SDS011;10097;50.862;4.696;2022-10-13T02:50:43;12.87;;;6.03;;
19869;SDS011;10097;50.862;4.696;2022-10-13T02:53:13;17.60;;;6.33;;
19869;SDS011;10097;50.862;4.696;2022-10-13T02:55:39;17.30;;;7.00;;
19869;SDS011;10097;50.862;4.696;2022-10-13T02:58:13;18.03;;;6.40;;
19869;SDS011;10097;50.862;4.696;2022-10-13T03:00:41;19.90;;;7.27;;
19869;SDS011;10097;50.862;4.696;2022-10-13T03:03:07;20.27;;;7.03;;
19869;SDS011;10097;50.862;4.696;2022-10-13T03:15:44;17.27;;;7.63;;
19869;SDS011;10097;50.862;4.696;2022-10-13T03:18:15;17.40;;;6.50;;
19869;SDS011;10097;50.862;4.696;2022-10-13T03:20:40;22.57;;;7.53;;
19869;SDS011;10097;50.862;4.696;2022-10-13T03:23:07;22.37;;;7.80;;
19869;SDS011;10097;50.862;4.696;2022-10-13T03:25:55;18.80;;;8.03;;
19869;SDS011;10097;50.862;4.696;2022-10-13T03:32:06;18.43;;;7.50;;
19869;SDS011;10097;50.862;4.696;2022-10-13T03:38:21;16.63;;;7.73;;
19869;SDS011;10097;50.862;4.696;2022-10-13T03:40:49;19.93;;;7.97;;
19869;SDS011;10097;50.862;4.696;2022-10-13T03:43:15;19.77;;;8.07;;
19869;SDS011;10097;50.862;4.696;2022-10-13T03:45:43;19.23;;;7.63;;
19869;SDS011;10097;50.862;4.696;2022-10-13T03:48:21;20.67;;;7.47;;
19869;SDS011;10097;50.862;4.696;2022-10-13T03:50:46;20.23;;;7.90;;
19869;SDS011;10097;50.862;4.696;2022-10-13T03:53:24;24.87;;;7.90;;
19869;SDS011;10097;50.862;4.696;2022-10-13T03:56:16;17.53;;;7.77;;
19869;SDS011;10097;50.862;4.696;2022-10-13T03:58:45;18.70;;;8.43;;
19869;SDS011;10097;50.862;4.696;2022-10-13T04:01:19;20.07;;;7.83;;
19869;SDS011;10097;50.862;4.696;2022-10-13T04:04:06;20.53;;;7.30;;
19869;SDS011;10097;50.862;4.696;2022-10-13T04:06:36;25.47;;;8.53;;
19869;SDS011;10097;50.862;4.696;2022-10-13T04:09:15;21.30;;;8.00;;
19869;SDS011;10097;50.862;4.696;2022-10-13T04:11:49;19.70;;;8.00;;
19869;SDS011;10097;50.862;4.696;2022-10-13T04:14:22;19.53;;;8.27;;
19869;SDS011;10097;50.862;4.696;2022-10-13T04:16:50;19.03;;;7.63;;
19869;SDS011;10097;50.862;4.696;2022-10-13T04:19:28;21.13;;;8.07;;
19869;SDS011;10097;50.862;4.696;2022-10-13T04:21:56;24.50;;;8.53;;
19869;SDS011;10097;50.862;4.696;2022-10-13T04:24:34;21.00;;;8.60;;
19869;SDS011;10097;50.862;4.696;2022-10-13T04:27:02;28.03;;;7.83;;
19869;SDS011;10097;50.862;4.696;2022-10-13T04:29:31;25.60;;;7.73;;
19869;SDS011;10097;50.862;4.696;2022-10-13T04:32:02;20.73;;;7.83;;
19869;SDS011;10097;50.862;4.696;2022-10-13T04:37:18;17.90;;;7.73;;
19869;SDS011;10097;50.862;4.696;2022-10-13T04:40:09;21.30;;;7.20;;
19869;SDS011;10097;50.862;4.696;2022-10-13T04:42:38;22.93;;;8.13;;
19869;SDS011;10097;50.862;4.696;2022-10-13T04:48:10;21.23;;;7.70;;
19869;SDS011;10097;50.862;4.696;2022-10-13T04:50:41;17.63;;;7.20;;
19869;SDS011;10097;50.862;4.696;2022-10-13T04:53:15;20.97;;;7.80;;
19869;SDS011;10097;50.862;4.696;2022-10-13T04:55:55;21.40;;;7.67;;
19869;SDS011;10097;50.862;4.696;2022-10-13T04:58:32;18.77;;;7.53;;
19869;SDS011;10097;50.862;4.696;2022-10-13T05:01:31;29.37;;;7.97;;
19869;SDS011;10097;50.862;4.696;2022-10-13T05:04:03;19.37;;;8.03;;
19869;SDS011;10097;50.862;4.696;2022-10-13T05:06:35;18.63;;;6.83;;
19869;SDS011;10097;50.862;4.696;2022-10-13T05:09:04;20.57;;;7.40;;
19869;SDS011;10097;50.862;4.696;2022-10-13T05:11:41;20.30;;;7.47;;
19869;SDS011;10097;50.862;4.696;2022-10-13T05:14:09;17.80;;;7.63;;
19869;SDS011;10097;50.862;4.696;2022-10-13T05:16:42;22.93;;;7.57;;
19869;SDS011;10097;50.862;4.696;2022-10-13T05:19:11;18.70;;;7.73;;
19869;SDS011;10097;50.862;4.696;2022-10-13T05:21:44;18.27;;;7.60;;
19869;SDS011;10097;50.862;4.696;2022-10-13T05:24:15;22.50;;;8.23;;
19869;SDS011;10097;50.862;4.696;2022-10-13T05:27:02;20.30;;;8.40;;
19869;SDS011;10097;50.862;4.696;2022-10-13T05:29:36;18.77;;;6.30;;
19869;SDS011;10097;50.862;4.696;2022-10-13T05:32:05;16.17;;;6.90;;
19869;SDS011;10097;50.862;4.696;2022-10-13T05:34:42;24.13;;;7.90;;
19869;SDS011;10097;50.862;4.696;2022-10-13T05:37:08;22.60;;;7.37;;
19869;SDS011;10097;50.862;4.696;2022-10-13T05:39:47;23.27;;;6.87;;
19869;SDS011;10097;50.862;4.696;2022-10-13T05:42:20;24.93;;;8.80;;
19869;SDS011;10097;50.862;4.696;2022-10-13T05:44:46;17.60;;;6.47;;
19869;SDS011;10097;50.862;4.696;2022-10-13T05:47:32;21.73;;;8.57;;
19869;SDS011;10097;50.862;4.696;2022-10-13T05:50:10;21.43;;;7.70;;
19869;SDS011;10097;50.862;4.696;2022-10-13T05:52:36;19.27;;;6.43;;
19869;SDS011;10097;50.862;4.696;2022-10-13T05:55:02;15.63;;;6.67;;
19869;SDS011;10097;50.862;4.696;2022-10-13T05:57:30;21.80;;;8.13;;
19869;SDS011;10097;50.862;4.696;2022-10-13T06:00:09;16.83;;;7.40;;
19869;SDS011;10097;50.862;4.696;2022-10-13T06:02:42;17.73;;;6.93;;
19869;SDS011;10097;50.862;4.696;2022-10-13T06:05:40;22.40;;;8.20;;
19869;SDS011;10097;50.862;4.696;2022-10-13T06:08:13;21.90;;;7.97;;
19869;SDS011;10097;50.862;4.696;2022-10-13T06:11:01;18.93;;;7.97;;
19869;SDS011;10097;50.862;4.696;2022-10-13T06:13:30;24.90;;;8.60;;
19869;SDS011;10097;50.862;4.696;2022-10-13T06:16:18;25.53;;;8.57;;
19869;SDS011;10097;50.862;4.696;2022-10-13T06:18:56;24.80;;;8.17;;
19869;SDS011;10097;50.862;4.696;2022-10-13T06:28:20;21.33;;;7.67;;
19869;SDS011;10097;50.862;4.696;2022-10-13T06:34:16;23.20;;;8.43;;
19869;SDS011;10097;50.862;4.696;2022-10-13T06:43:31;25.43;;;8.20;;
19869;SDS011;10097;50.862;4.696;2022-10-13T06:49:20;27.43;;;8.67;;
19869;SDS011;10097;50.862;4.696;2022-10-13T06:51:47;18.43;;;8.13;;
19869;SDS011;10097;50.862;4.696;2022-10-13T06:54:13;19.70;;;7.83;;
19869;SDS011;10097;50.862;4.696;2022-10-13T07:04:02;22.37;;;8.30;;
19869;SDS011;10097;50.862;4.696;2022-10-13T07:45:25;20.03;;;7.07;;
19869;SDS011;10097;50.862;4.696;2022-10-13T07:48:01;15.63;;;6.50;;
19869;SDS011;10097;50.862;4.696;2022-10-13T07:50:45;18.20;;;7.70;;
19869;SDS011;10097;50.862;4.696;2022-10-13T07:54:00;15.53;;;6.10;;
19869;SDS011;10097;50.862;4.696;2022-10-13T08:07:48;18.67;;;7.70;;
19869;SDS011;10097;50.862;4.696;2022-10-13T08:13:38;17.93;;;6.73;;
19869;SDS011;10097;50.862;4.696;2022-10-13T08:16:14;18.07;;;6.63;;
19869;SDS011;10097;50.862;4.696;2022-10-13T09:01:56;15.90;;;6.63;;
19869;SDS011;10097;50.862;4.696;2022-10-13T09:14:07;18.70;;;7.03;;
19869;SDS011;10097;50.862;4.696;2022-10-13T09:16:51;16.50;;;6.17;;
19869;SDS011;10097;50.862;4.696;2022-10-13T09:21:54;21.08;;;6.47;;
19869;SDS011;10097;50.862;4.696;2022-10-13T09:34:44;15.65;;;6.05;;
19869;SDS011;10097;50.862;4.696;2022-10-13T10:01:52;13.13;;;5.40;;
19869;SDS011;10097;50.862;4.696;2022-10-13T10:34:58;13.05;;;5.13;;
19869;SDS011;10097;50.862;4.696;2022-10-13T10:44:01;13.82;;;5.88;;
19869;SDS011;10097;50.862;4.696;2022-10-13T10:46:34;13.95;;;5.30;;
19869;SDS011;10097;50.862;4.696;2022-10-13T10:52:01;16.77;;;5.60;;
19869;SDS011;10097;50.862;4.696;2022-10-13T11:00:12;21.55;;;7.22;;
19869;SDS011;10097;50.862;4.696;2022-10-13T11:19:36;20.55;;;8.43;;
19869;SDS011;10097;50.862;4.696;2022-10-13T11:29:00;21.33;;;9.10;;
19869;SDS011;10097;50.862;4.696;2022-10-13T11:34:29;21.73;;;9.90;;
19869;SDS011;10097;50.862;4.696;2022-10-13T11:36:59;24.90;;;10.43;;
19869;SDS011;10097;50.862;4.696;2022-10-13T11:39:36;27.23;;;10.57;;
19869;SDS011;10097;50.862;4.696;2022-10-13T11:56:19;27.20;;;11.13;;
19869;SDS011;10097;50.862;4.696;2022-10-13T11:59:17;22.17;;;11.43;;
19869;SDS011;10097;50.862;4.696;2022-10-13T12:01:44;25.23;;;10.77;;
19869;SDS011;10097;50.862;4.696;2022-10-13T12:04:13;26.77;;;11.30;;
19869;SDS011;10097;50.862;4.696;2022-10-13T12:06:39;21.20;;;10.20;;
19869;SDS011;10097;50.862;4.696;2022-10-13T12:09:13;24.95;;;10.82;;
19869;SDS011;10097;50.862;4.696;2022-10-13T12:11:42;22.17;;;11.90;;
19869;SDS011;10097;50.862;4.696;2022-10-13T12:14:19;22.13;;;11.13;;
19869;SDS011;10097;50.862;4.696;2022-10-13T12:37:54;20.75;;;9.27;;
19869;SDS011;10097;50.862;4.696;2022-10-13T12:40:21;18.40;;;9.75;;
19869;SDS011;10097;50.862;4.696;2022-10-13T12:42:49;20.38;;;9.82;;
19869;SDS011;10097;50.862;4.696;2022-10-13T12:45:18;23.83;;;9.70;;
19869;SDS011;10097;50.862;4.696;2022-10-13T12:47:47;19.83;;;8.50;;
19869;SDS011;10097;50.862;4.696;2022-10-13T12:56:30;19.05;;;8.57;;
19869;SDS011;10097;50.862;4.696;2022-10-13T13:08:23;19.83;;;8.05;;
19869;SDS011;10097;50.862;4.696;2022-10-13T13:11:35;23.27;;;8.77;;
19869;SDS011;10097;50.862;4.696;2022-10-13T13:24:00;22.45;;;8.70;;
19869;SDS011;10097;50.862;4.696;2022-10-13T13:33:15;17.23;;;6.63;;
19869;SDS011;10097;50.862;4.696;2022-10-13T13:39:05;18.85;;;6.28;;
19869;SDS011;10097;50.862;4.696;2022-10-13T13:41:36;19.55;;;6.60;;
19869;SDS011;10097;50.862;4.696;2022-10-13T13:44:02;14.50;;;6.53;;
19869;SDS011;10097;50.862;4.696;2022-10-13T13:46:30;16.05;;;7.22;;
19869;SDS011;10097;50.862;4.696;2022-10-13T13:48:56;13.50;;;6.15;;
19869;SDS011;10097;50.862;4.696;2022-10-13T13:51:22;14.13;;;6.68;;
19869;SDS011;10097;50.862;4.696;2022-10-13T13:53:48;11.52;;;5.60;;
19869;SDS011;10097;50.862;4.696;2022-10-13T13:56:14;17.70;;;6.28;;
19869;SDS011;10097;50.862;4.696;2022-10-13T13:58:41;14.05;;;6.80;;
19869;SDS011;10097;50.862;4.696;2022-10-13T14:01:08;16.37;;;7.23;;
19869;SDS011;10097;50.862;4.696;2022-10-13T14:03:34;19.43;;;7.43;;
19869;SDS011;10097;50.862;4.696;2022-10-13T14:06:00;15.52;;;7.65;;
19869;SDS011;10097;50.862;4.696;2022-10-13T14:08:28;16.00;;;8.80;;
19869;SDS011;10097;50.862;4.696;2022-10-13T14:10:55;17.43;;;8.03;;
19869;SDS011;10097;50.862;4.696;2022-10-13T14:13:21;18.85;;;8.05;;
19869;SDS011;10097;50.862;4.696;2022-10-13T14:15:55;20.00;;;9.50;;
19869;SDS011;10097;50.862;4.696;2022-10-13T14:18:22;18.50;;;9.30;;
19869;SDS011;10097;50.862;4.696;2022-10-13T14:20:48;17.43;;;8.70;;
19869;SDS011;10097;50.862;4.696;2022-10-13T14:23:13;18.10;;;9.80;;
19869;SDS011;10097;50.862;4.696;2022-10-13T14:25:39;18.33;;;9.50;;
19869;SDS011;10097;50.862;4.696;2022-10-13T14:28:04;21.07;;;9.80;;
19869;SDS011;10097;50.862;4.696;2022-10-13T14:30:30;17.87;;;10.10;;
19869;SDS011;10097;50.862;4.696;2022-10-13T14:32:56;26.40;;;11.00;;
19869;SDS011;10097;50.862;4.696;2022-10-13T14:35:21;23.13;;;10.33;;
19869;SDS011;10097;50.862;4.696;2022-10-13T14:37:48;23.40;;;10.43;;
19869;SDS011;10097;50.862;4.696;2022-10-13T14:40:13;21.90;;;11.63;;
19869;SDS011;10097;50.862;4.696;2022-10-13T14:42:39;21.33;;;10.23;;
19869;SDS011;10097;50.862;4.696;2022-10-13T14:45:06;19.67;;;10.90;;
19869;SDS011;10097;50.862;4.696;2022-10-13T14:47:37;21.87;;;10.50;;
19869;SDS011;10097;50.862;4.696;2022-10-13T14:50:02;24.00;;;11.87;;
19869;SDS011;10097;50.862;4.696;2022-10-13T14:52:28;20.52;;;10.55;;
19869;SDS011;10097;50.862;4.696;2022-10-13T14:54:54;19.37;;;10.67;;
19869;SDS011;10097;50.862;4.696;2022-10-13T14:57:20;24.80;;;11.33;;
19869;SDS011;10097;50.862;4.696;2022-10-13T14:59:46;22.40;;;11.30;;
19869;SDS011;10097;50.862;4.696;2022-10-13T15:02:12;21.10;;;10.77;;
19869;SDS011;10097;50.862;4.696;2022-10-13T15:04:37;23.48;;;12.15;;
19869;SDS011;10097;50.862;4.696;2022-10-13T15:07:03;19.33;;;10.67;;
19869;SDS011;10097;50.862;4.696;2022-10-13T15:09:29;27.00;;;12.63;;
19869;SDS011;10097;50.862;4.696;2022-10-13T15:11:56;24.83;;;11.53;;
19869;SDS011;10097;50.862;4.696;2022-10-13T15:14:21;22.20;;;11.30;;
19869;SDS011;10097;50.862;4.696;2022-10-13T15:16:47;22.07;;;10.70;;
19869;SDS011;10097;50.862;4.696;2022-10-13T15:19:13;18.57;;;9.27;;
19869;SDS011;10097;50.862;4.696;2022-10-13T15:21:39;18.17;;;8.70;;
19869;SDS011;10097;50.862;4.696;2022-10-13T15:24:04;18.90;;;8.43;;
19869;SDS011;10097;50.862;4.696;2022-10-13T15:26:31;18.37;;;8.33;;
19869;SDS011;10097;50.862;4.696;2022-10-13T15:28:57;14.73;;;7.97;;
19869;SDS011;10097;50.862;4.696;2022-10-13T15:31:23;15.87;;;6.67;;
19869;SDS011;10097;50.862;4.696;2022-10-13T15:33:49;12.48;;;5.25;;
19869;SDS011;10097;50.862;4.696;2022-10-13T15:36:17;12.17;;;5.50;;
19869;SDS011;10097;50.862;4.696;2022-10-13T15:38:44;13.37;;;5.23;;
19869;SDS011;10097;50.862;4.696;2022-10-13T15:41:10;12.63;;;4.60;;
19869;SDS011;10097;50.862;4.696;2022-10-13T15:43:36;10.70;;;4.73;;
19869;SDS011;10097;50.862;4.696;2022-10-13T15:46:06;13.50;;;4.40;;
19869;SDS011;10097;50.862;4.696;2022-10-13T15:48:34;10.37;;;4.27;;
19869;SDS011;10097;50.862;4.696;2022-10-13T15:51:00;10.20;;;4.00;;
19869;SDS011;10097;50.862;4.696;2022-10-13T15:53:26;10.10;;;4.27;;
19869;SDS011;10097;50.862;4.696;2022-10-13T15:55:53;12.53;;;4.63;;
19869;SDS011;10097;50.862;4.696;2022-10-13T15:58:19;14.80;;;4.03;;
19869;SDS011;10097;50.862;4.696;2022-10-13T16:00:44;12.87;;;3.70;;
19869;SDS011;10097;50.862;4.696;2022-10-13T16:03:14;10.47;;;3.97;;
19869;SDS011;10097;50.862;4.696;2022-10-13T16:05:41;10.10;;;3.77;;
19869;SDS011;10097;50.862;4.696;2022-10-13T16:08:07;7.87;;;3.47;;
19869;SDS011;10097;50.862;4.696;2022-10-13T16:10:33;8.57;;;3.40;;
19869;SDS011;10097;50.862;4.696;2022-10-13T16:12:58;11.00;;;3.30;;
19869;SDS011;10097;50.862;4.696;2022-10-13T16:15:24;10.35;;;3.33;;
19869;SDS011;10097;50.862;4.696;2022-10-13T16:17:50;10.32;;;3.45;;
19869;SDS011;10097;50.862;4.696;2022-10-13T16:20:16;7.73;;;3.33;;
19869;SDS011;10097;50.862;4.696;2022-10-13T16:22:42;12.47;;;3.93;;
19869;SDS011;10097;50.862;4.696;2022-10-13T16:31:24;9.87;;;4.27;;
19869;SDS011;10097;50.862;4.696;2022-10-13T16:33:49;10.03;;;3.57;;
19869;SDS011;10097;50.862;4.696;2022-10-13T16:36:16;13.13;;;4.30;;
19869;SDS011;10097;50.862;4.696;2022-10-13T16:49:02;9.37;;;4.13;;
19869;SDS011;10097;50.862;4.696;2022-10-13T16:51:28;10.67;;;3.93;;
19869;SDS011;10097;50.862;4.696;2022-10-13T16:53:55;12.10;;;4.20;;
19869;SDS011;10097;50.862;4.696;2022-10-13T16:56:22;14.43;;;4.73;;
19869;SDS011;10097;50.862;4.696;2022-10-13T17:54:21;13.97;;;5.73;;
19869;SDS011;10097;50.862;4.696;2022-10-13T17:56:53;21.00;;;6.20;;
19869;SDS011;10097;50.862;4.696;2022-10-13T17:59:20;13.67;;;6.33;;
19869;SDS011;10097;50.862;4.696;2022-10-13T18:01:45;16.63;;;6.60;;
19869;SDS011;10097;50.862;4.696;2022-10-13T18:04:12;12.60;;;5.87;;
19869;SDS011;10097;50.862;4.696;2022-10-13T18:09:24;17.13;;;6.07;;
19869;SDS011;10097;50.862;4.696;2022-10-13T18:11:51;15.97;;;6.37;;
19869;SDS011;10097;50.862;4.696;2022-10-13T18:14:18;13.60;;;5.40;;
19869;SDS011;10097;50.862;4.696;2022-10-13T18:16:51;16.25;;;6.20;;
19869;SDS011;10097;50.862;4.696;2022-10-13T18:19:17;13.20;;;5.27;;
19869;SDS011;10097;50.862;4.696;2022-10-13T18:21:45;14.23;;;6.57;;
19869;SDS011;10097;50.862;4.696;2022-10-13T18:24:12;18.37;;;6.73;;
19869;SDS011;10097;50.862;4.696;2022-10-13T18:26:37;17.00;;;6.60;;
19869;SDS011;10097;50.862;4.696;2022-10-13T18:29:04;18.53;;;6.80;;
19869;SDS011;10097;50.862;4.696;2022-10-13T18:31:32;11.93;;;6.33;;
19869;SDS011;10097;50.862;4.696;2022-10-13T18:34:04;12.37;;;5.90;;
19869;SDS011;10097;50.862;4.696;2022-10-13T18:36:32;15.73;;;6.60;;
19869;SDS011;10097;50.862;4.696;2022-10-13T18:39:12;16.13;;;7.17;;
19869;SDS011;10097;50.862;4.696;2022-10-13T18:41:40;18.33;;;7.70;;
19869;SDS011;10097;50.862;4.696;2022-10-13T18:44:06;17.73;;;7.57;;
19869;SDS011;10097;50.862;4.696;2022-10-13T18:46:32;17.50;;;6.83;;
19869;SDS011;10097;50.862;4.696;2022-10-13T18:48:59;16.10;;;7.47;;
19869;SDS011;10097;50.862;4.696;2022-10-13T18:51:26;15.93;;;7.13;;
19869;SDS011;10097;50.862;4.696;2022-10-13T18:53:54;19.87;;;7.40;;
19869;SDS011;10097;50.862;4.696;2022-10-13T18:59:43;16.20;;;6.90;;
19869;SDS011;10097;50.862;4.696;2022-10-13T19:02:09;19.63;;;7.90;;
19869;SDS011;10097;50.862;4.696;2022-10-13T19:04:37;17.07;;;8.43;;
19869;SDS011;10097;50.862;4.696;2022-10-13T19:07:03;19.97;;;8.53;;
19869;SDS011;10097;50.862;4.696;2022-10-13T19:09:29;20.10;;;8.17;;
19869;SDS011;10097;50.862;4.696;2022-10-13T19:11:54;21.20;;;8.73;;
19869;SDS011;10097;50.862;4.696;2022-10-13T19:47:49;15.17;;;7.40;;
19869;SDS011;10097;50.862;4.696;2022-10-13T19:53:18;16.67;;;8.77;;
19869;SDS011;10097;50.862;4.696;2022-10-13T19:55:45;18.33;;;8.47;;
19869;SDS011;10097;50.862;4.696;2022-10-13T19:58:14;17.83;;;9.30;;
19869;SDS011;10097;50.862;4.696;2022-10-13T20:00:41;15.93;;;8.97;;
19869;SDS011;10097;50.862;4.696;2022-10-13T20:03:08;19.93;;;9.70;;
19869;SDS011;10097;50.862;4.696;2022-10-13T20:05:35;17.97;;;8.07;;
19869;SDS011;10097;50.862;4.696;2022-10-13T20:08:02;16.30;;;8.37;;
19869;SDS011;10097;50.862;4.696;2022-10-13T20:10:28;14.73;;;7.93;;
19869;SDS011;10097;50.862;4.696;2022-10-13T20:12:54;17.57;;;8.60;;
19869;SDS011;10097;50.862;4.696;2022-10-13T20:15:19;16.93;;;8.63;;
19869;SDS011;10097;50.862;4.696;2022-10-13T20:17:45;16.87;;;8.90;;
19869;SDS011;10097;50.862;4.696;2022-10-13T20:20:11;19.73;;;8.60;;
19869;SDS011;10097;50.862;4.696;2022-10-13T20:22:36;20.17;;;9.50;;
19869;SDS011;10097;50.862;4.696;2022-10-13T20:25:04;18.63;;;9.27;;
19869;SDS011;10097;50.862;4.696;2022-10-13T20:27:31;20.43;;;8.93;;
19869;SDS011;10097;50.862;4.696;2022-10-13T20:29:56;16.37;;;9.43;;
19869;SDS011;10097;50.862;4.696;2022-10-13T20:32:22;15.87;;;8.77;;
19869;SDS011;10097;50.862;4.696;2022-10-13T20:34:48;17.17;;;8.80;;
19869;SDS011;10097;50.862;4.696;2022-10-13T20:37:13;17.70;;;9.07;;
19869;SDS011;10097;50.862;4.696;2022-10-13T20:39:39;18.67;;;9.53;;
19869;SDS011;10097;50.862;4.696;2022-10-13T20:42:05;17.20;;;9.57;;
19869;SDS011;10097;50.862;4.696;2022-10-13T20:44:31;20.17;;;9.43;;
19869;SDS011;10097;50.862;4.696;2022-10-13T20:46:56;17.47;;;9.47;;
19869;SDS011;10097;50.862;4.696;2022-10-13T20:49:22;16.40;;;8.57;;
19869;SDS011;10097;50.862;4.696;2022-10-13T20:51:48;18.67;;;9.13;;
19869;SDS011;10097;50.862;4.696;2022-10-13T20:54:14;19.93;;;9.77;;
19869;SDS011;10097;50.862;4.696;2022-10-13T20:56:40;18.93;;;9.27;;
19869;SDS011;10097;50.862;4.696;2022-10-13T20:59:07;16.92;;;9.05;;
19869;SDS011;10097;50.862;4.696;2022-10-13T21:01:35;16.97;;;9.27;;
19869;SDS011;10097;50.862;4.696;2022-10-13T21:04:01;13.70;;;8.37;;
19869;SDS011;10097;50.862;4.696;2022-10-13T21:06:28;16.87;;;9.60;;
19869;SDS011;10097;50.862;4.696;2022-10-13T21:08:54;17.77;;;9.50;;
19869;SDS011;10097;50.862;4.696;2022-10-13T21:11:20;15.50;;;8.80;;
19869;SDS011;10097;50.862;4.696;2022-10-13T21:13:47;15.90;;;8.90;;
19869;SDS011;10097;50.862;4.696;2022-10-13T21:16:15;19.40;;;8.87;;
19869;SDS011;10097;50.862;4.696;2022-10-13T21:18:46;17.27;;;8.90;;
19869;SDS011;10097;50.862;4.696;2022-10-13T21:21:13;16.23;;;8.10;;
